Terminal Aerodrome Forecast
Issued by NWS

Home | Current Version | Previous Version | Text Only | Print | Product List | Glossary On
Versions: 1 2 3 4 5 6 7 8 9 10 11 12 13 14 15 16 17 18 19 20 21 22 23 24 25 26
000
FTUS43 KDLH 231000 AAB
TAFHIB
TAF AMD
KHIB 231046Z 2311/2406 00000KT 1/2SM FG OVC001
      TEMPO 2312/2313 4SM BR SCT003
     FM231300 18002KT P6SM SKC
     FM231700 18008G15KT P6SM SKC
     FM232300 16005KT P6SM SCT250=

USA.gov is the U.S. government's official web portal to all federal, state and local government web resources and services.